createdAt,value
2018-05-02T00:01:51.038Z,99155.08
2018-05-02T00:07:08.864Z,99143.08
2018-05-02T00:09:53.771Z,99148.88
2018-05-02T00:12:21.322Z,99140.06
2018-05-02T00:14:48.842Z,99143.34
2018-05-02T00:17:16.401Z,99139.34
2018-05-02T00:19:44.546Z,99133.89
2018-05-02T00:22:12.106Z,99127.83
2018-05-02T00:24:39.634Z,99128.86
2018-05-02T00:27:07.186Z,99113.48
2018-05-02T00:29:35.342Z,99122.45
2018-05-02T00:32:02.918Z,99120.55
2018-05-02T00:34:30.465Z,99123.83
2018-05-02T00:36:58.021Z,99118.45
2018-05-02T00:39:25.545Z,99119.43
2018-05-02T00:41:53.124Z,99115.00
2018-05-02T00:44:20.654Z,99118.73
2018-05-02T00:46:48.207Z,99122.98
2018-05-02T00:49:17.510Z,99122.92
2018-05-02T00:51:45.083Z,99120.63
2018-05-02T00:54:12.607Z,99118.38
2018-05-02T00:56:40.161Z,99122.27
2018-05-02T00:59:07.713Z,99122.50
2018-05-02T01:01:35.766Z,99122.08
2018-05-02T01:04:03.341Z,99112.64
2018-05-02T01:06:30.874Z,99115.25
2018-05-02T01:08:58.423Z,99111.64
2018-05-02T01:11:26.066Z,99107.10
2018-05-02T01:13:53.649Z,99104.42
2018-05-02T01:16:21.180Z,99111.28
2018-05-02T01:18:48.729Z,99109.20
2018-05-02T01:21:16.259Z,99109.96
2018-05-02T01:23:43.806Z,99117.72
2018-05-02T01:26:11.366Z,99116.77
2018-05-02T01:28:38.941Z,99108.73
2018-05-02T01:31:06.465Z,99108.56
2018-05-02T01:33:34.097Z,99108.92
2018-05-02T01:36:01.606Z,99107.14
2018-05-02T01:38:29.175Z,99099.77
2018-05-02T01:40:56.705Z,99106.48
2018-05-02T01:43:24.330Z,99102.87
2018-05-02T01:45:51.862Z,99098.00
2018-05-02T01:48:19.401Z,99097.25
2018-05-02T01:50:46.912Z,99095.50
2018-05-02T01:53:14.463Z,99099.00
2018-05-02T01:55:41.983Z,99095.13
2018-05-02T01:58:09.536Z,99099.86
2018-05-02T02:00:37.074Z,99104.77
2018-05-02T02:03:04.646Z,99103.66
2018-05-02T02:05:32.275Z,99111.95
2018-05-02T02:07:59.830Z,99113.11
2018-05-02T02:10:27.351Z,99106.58
2018-05-02T02:12:54.942Z,99104.53
2018-05-02T02:15:22.481Z,99102.91
2018-05-02T02:17:50.035Z,99112.97
2018-05-02T02:20:17.592Z,99112.95
2018-05-02T02:22:45.140Z,99108.50
2018-05-02T02:25:12.673Z,99107.33
2018-05-02T02:27:40.249Z,99099.22
2018-05-02T02:30:07.828Z,99098.73
2018-05-02T02:32:36.321Z,99111.55
2018-05-02T02:35:03.903Z,99107.02
2018-05-02T02:37:31.425Z,99108.02
2018-05-02T02:39:59.309Z,99110.99
2018-05-02T02:42:26.835Z,99117.05
2018-05-02T02:44:54.415Z,99118.97
2018-05-02T02:47:21.965Z,99107.77
2018-05-02T02:49:49.517Z,99113.52
2018-05-02T02:52:17.041Z,99111.66
2018-05-02T02:54:44.593Z,99114.80
2018-05-02T02:57:12.123Z,99115.32
2018-05-02T02:59:39.920Z,99117.39
2018-05-02T03:02:07.455Z,99110.72
2018-05-02T03:04:35.032Z,99111.40
2018-05-02T03:07:02.605Z,99110.92
2018-05-02T03:09:30.163Z,99110.81
2018-05-02T03:11:57.702Z,99101.26
2018-05-02T03:14:25.770Z,99101.77
2018-05-02T03:16:53.393Z,99095.30
2018-05-02T03:19:20.995Z,99092.79
2018-05-02T03:21:48.521Z,99100.72
2018-05-02T03:24:16.071Z,99101.93
2018-05-02T03:26:43.598Z,99092.80
2018-05-02T03:29:11.156Z,99090.16
2018-05-02T03:31:38.682Z,99099.03
2018-05-02T03:34:06.460Z,99082.98
2018-05-02T03:36:34.014Z,99103.19
2018-05-02T03:39:01.562Z,99095.56
2018-05-02T03:41:29.090Z,99090.36
2018-05-02T03:43:56.665Z,99093.16
2018-05-02T03:46:24.194Z,99093.11
2018-05-02T03:48:51.741Z,99088.14
2018-05-02T03:51:19.273Z,99084.91
2018-05-02T03:53:46.824Z,99088.55
2018-05-02T03:56:14.350Z,99082.90
2018-05-02T03:58:41.947Z,99080.60
2018-05-02T04:01:21.158Z,99085.02
2018-05-02T04:04:00.622Z,99085.13
2018-05-02T04:06:39.859Z,99082.23
2018-05-02T04:09:07.437Z,99083.52
2018-05-02T04:11:36.562Z,99089.13
2018-05-02T04:14:04.196Z,99087.51
2018-05-02T04:16:31.744Z,99080.47
2018-05-02T04:18:59.294Z,99081.14
2018-05-02T04:21:26.822Z,99088.39
2018-05-02T04:23:54.410Z,99081.42
2018-05-02T04:26:21.953Z,99086.83
2018-05-02T04:28:49.489Z,99084.34
2018-05-02T04:31:17.057Z,99086.89
2018-05-02T04:33:44.658Z,99100.00
2018-05-02T04:36:12.215Z,99096.73
2018-05-02T04:38:39.743Z,99103.59
2018-05-02T04:41:07.342Z,99115.33
2018-05-02T04:43:34.869Z,99121.08
2018-05-02T04:46:02.447Z,99113.16
2018-05-02T04:48:29.975Z,99122.34
2018-05-02T04:50:57.577Z,99114.81
2018-05-02T04:53:25.102Z,99115.34
2018-05-02T04:55:53.249Z,99110.93
2018-05-02T04:58:20.954Z,99109.45
2018-05-02T05:00:48.511Z,99104.69
2018-05-02T05:03:16.039Z,99112.38
2018-05-02T05:05:43.589Z,99115.12
2018-05-02T05:08:11.237Z,99106.81
2018-05-02T05:10:38.892Z,99111.08
2018-05-02T05:13:09.614Z,99117.21
2018-05-02T05:15:37.174Z,99113.78
2018-05-02T05:18:06.127Z,99118.20
2018-05-02T05:20:33.694Z,99127.06
2018-05-02T05:23:01.279Z,99115.33
2018-05-02T05:25:28.839Z,99110.55
2018-05-02T05:27:56.385Z,99112.05
2018-05-02T05:30:24.023Z,99121.56
2018-05-02T05:32:51.569Z,99120.46
2018-05-02T05:35:19.227Z,99117.20
2018-05-02T05:37:46.718Z,99121.03
2018-05-02T05:40:14.275Z,99124.53
2018-05-02T05:42:41.842Z,99121.02
2018-05-02T05:45:09.395Z,99127.88
2018-05-02T05:47:36.929Z,99132.20
2018-05-02T05:50:04.506Z,99128.43
2018-05-02T05:52:32.088Z,99136.34
2018-05-02T05:54:59.633Z,99135.39
2018-05-02T05:57:27.139Z,99130.38
2018-05-02T05:59:54.838Z,99140.90
2018-05-02T06:02:22.391Z,99142.14
2018-05-02T06:04:49.964Z,99136.94
2018-05-02T06:07:17.497Z,99148.02
2018-05-02T06:09:45.093Z,99151.88
2018-05-02T06:12:12.702Z,99152.22
2018-05-02T06:14:40.230Z,99152.73
2018-05-02T06:17:07.802Z,99154.52
2018-05-02T06:19:35.330Z,99161.52
2018-05-02T06:22:02.887Z,99164.41
2018-05-02T06:24:30.463Z,99161.54
2018-05-02T06:26:58.115Z,99164.50
2018-05-02T06:29:28.115Z,99160.77
2018-05-02T06:31:55.829Z,99159.63
2018-05-02T06:34:23.371Z,99160.47
2018-05-02T06:36:50.949Z,99160.17
2018-05-02T06:39:18.503Z,99157.77
2018-05-02T06:41:46.053Z,99166.76
2018-05-02T06:44:13.581Z,99153.82
2018-05-02T06:46:41.132Z,99154.11
2018-05-02T06:49:08.747Z,99147.96
2018-05-02T06:51:37.186Z,99150.87
2018-05-02T06:54:04.715Z,99140.73
2018-05-02T06:56:32.267Z,99146.25
2018-05-02T06:58:59.819Z,99135.39
2018-05-02T07:01:27.376Z,99137.64
2018-05-02T07:03:54.898Z,99130.45
2018-05-02T07:06:22.473Z,99121.43
2018-05-02T07:08:50.002Z,99114.77
2018-05-02T07:11:17.551Z,99111.67
2018-05-02T07:13:45.082Z,99109.20
2018-05-02T07:16:12.635Z,99099.53
2018-05-02T07:18:40.256Z,99098.20
2018-05-02T07:21:07.863Z,99083.47
2018-05-02T07:23:35.390Z,99103.25
2018-05-02T07:26:02.965Z,99110.03
2018-05-02T07:28:30.494Z,99104.70
2018-05-02T07:30:58.049Z,99091.59
2018-05-02T07:33:25.574Z,99089.65
2018-05-02T07:35:53.150Z,99083.33
2018-05-02T07:38:20.680Z,99073.13
2018-05-02T07:40:48.237Z,99076.68
2018-05-02T07:43:15.759Z,99080.40
2018-05-02T07:45:43.290Z,99072.86
2018-05-02T07:48:10.838Z,99062.67
2018-05-02T07:50:38.371Z,99067.62
2018-05-02T07:53:05.919Z,99068.95
2018-05-02T07:55:33.443Z,99059.80
2018-05-02T07:58:01.009Z,99065.85
2018-05-02T08:00:28.551Z,99066.95
2018-05-02T08:02:56.213Z,99067.16
2018-05-02T08:05:23.762Z,99054.16
2018-05-02T08:07:51.323Z,99053.20
2018-05-02T08:10:18.859Z,99050.98
2018-05-02T08:12:46.434Z,99056.69
2018-05-02T08:15:13.962Z,99054.78
2018-05-02T08:17:41.513Z,99044.73
2018-05-02T08:20:09.165Z,99041.86
2018-05-02T08:22:36.739Z,99035.48
2018-05-02T08:25:04.269Z,99035.06
2018-05-02T08:27:31.917Z,99026.69
2018-05-02T08:29:59.429Z,99028.72
2018-05-02T08:32:27.001Z,99030.19
2018-05-02T08:34:54.527Z,99024.95
2018-05-02T08:37:22.087Z,99024.13
2018-05-02T08:39:49.603Z,99022.66
2018-05-02T08:42:17.266Z,99022.34
2018-05-02T08:44:44.790Z,99016.23
2018-05-02T08:47:12.369Z,99017.13
2018-05-02T08:49:39.895Z,99017.89
2018-05-02T08:52:07.470Z,99017.30
2018-05-02T08:54:35.001Z,99020.53
2018-05-02T08:57:02.526Z,99025.78
2018-05-02T08:59:30.104Z,99013.87
2018-05-02T09:01:57.656Z,99011.30
2018-05-02T09:04:25.209Z,99007.30
2018-05-02T09:06:52.762Z,99007.73
2018-05-02T09:09:20.309Z,99010.30
2018-05-02T09:11:47.876Z,99015.04
2018-05-02T09:14:15.445Z,99017.78
2018-05-02T09:16:42.994Z,99020.72
2018-05-02T09:19:10.548Z,99010.11
2018-05-02T09:21:38.072Z,99018.16
2018-05-02T09:24:05.651Z,99020.19
2018-05-02T09:26:33.175Z,99015.23
2018-05-02T09:29:00.790Z,99015.39
2018-05-02T09:31:28.331Z,99018.25
2018-05-02T09:33:55.883Z,99010.92
2018-05-02T09:36:23.414Z,99008.33
2018-05-02T09:38:50.965Z,99006.72
2018-05-02T09:41:18.485Z,99005.36
2018-05-02T09:43:46.040Z,99003.59
2018-05-02T09:46:13.594Z,98999.12
2018-05-02T09:48:41.151Z,98999.38
2018-05-02T09:51:09.701Z,99005.38
2018-05-02T09:53:37.308Z,99004.85
2018-05-02T09:56:04.853Z,98994.39
2018-05-02T09:58:32.430Z,98993.51
2018-05-02T10:00:59.962Z,98993.45
2018-05-02T10:03:27.534Z,98997.78
2018-05-02T10:05:55.066Z,98997.72
2018-05-02T10:08:22.638Z,98990.20
2018-05-02T10:10:50.266Z,98985.59
2018-05-02T10:13:18.371Z,98977.13
2018-05-02T10:15:45.953Z,98977.39
2018-05-02T10:18:13.777Z,98976.06
2018-05-02T10:20:41.677Z,98977.11
2018-05-02T10:23:10.628Z,98971.45
2018-05-02T10:25:38.183Z,98970.22
2018-05-02T10:28:05.782Z,98972.45
2018-05-02T10:30:33.317Z,98983.89
2018-05-02T10:33:00.932Z,98970.69
2018-05-02T10:35:28.492Z,98974.64
2018-05-02T10:37:56.047Z,98975.56
2018-05-02T10:40:23.597Z,98966.34
2018-05-02T10:42:51.119Z,98968.30
2018-05-02T10:45:18.679Z,98963.31
2018-05-02T10:47:46.254Z,98964.63
2018-05-02T10:50:13.905Z,98965.21
2018-05-02T10:52:41.433Z,98967.05
2018-05-02T10:55:08.971Z,98966.08
2018-05-02T10:57:36.686Z,98961.03
2018-05-02T11:00:04.538Z,98964.81
2018-05-02T11:02:32.065Z,98958.48
2018-05-02T11:04:59.746Z,98956.02
2018-05-02T11:07:27.267Z,98957.02
2018-05-02T11:09:54.823Z,98959.66
2018-05-02T11:12:28.973Z,98961.25
2018-05-02T11:14:56.694Z,98958.12
2018-05-02T11:17:24.278Z,98949.20
2018-05-02T11:19:51.828Z,98953.67
2018-05-02T11:22:19.365Z,98948.80
2018-05-02T11:24:46.941Z,98944.82
2018-05-02T11:27:14.466Z,98948.14
2018-05-02T11:29:42.014Z,98938.19
2018-05-02T11:32:10.397Z,98938.22
2018-05-02T11:34:38.094Z,98946.55
2018-05-02T11:37:06.518Z,98939.81
2018-05-02T11:39:34.127Z,98937.50
2018-05-02T11:42:04.395Z,98940.21
2018-05-02T11:44:36.368Z,98940.89
2018-05-02T11:47:07.180Z,98951.36
2018-05-02T11:49:37.875Z,98943.72
2018-05-02T11:52:05.965Z,98947.36
2018-05-02T11:54:33.511Z,98946.55
2018-05-02T11:57:01.013Z,98941.05
2018-05-02T11:59:28.590Z,98942.36
2018-05-02T12:01:56.119Z,98949.28
2018-05-02T12:04:23.645Z,98935.69
2018-05-02T12:06:51.219Z,98938.91
2018-05-02T12:09:21.493Z,98935.20
2018-05-02T12:11:51.281Z,98935.20
2018-05-02T12:14:18.925Z,98932.98
2018-05-02T12:16:46.507Z,98918.33
2018-05-02T12:19:14.136Z,98921.75
2018-05-02T12:21:41.689Z,98918.75
2018-05-02T12:24:09.212Z,98913.26
2018-05-02T12:26:36.770Z,98908.09
2018-05-02T12:29:04.296Z,98912.89
2018-05-02T12:31:31.847Z,98918.91
2018-05-02T12:33:59.368Z,98903.89
2018-05-02T12:36:27.249Z,98893.76
2018-05-02T12:38:54.778Z,98903.91
2018-05-02T12:41:22.608Z,98902.72
2018-05-02T12:43:50.157Z,98902.58
2018-05-02T12:46:17.827Z,98895.30
2018-05-02T12:48:45.386Z,98892.21
2018-05-02T12:51:12.941Z,98889.27
2018-05-02T12:53:40.965Z,98897.41
2018-05-02T12:56:08.688Z,98892.33
2018-05-02T12:58:36.219Z,98888.41
2018-05-02T13:01:04.898Z,98882.98
2018-05-02T13:03:36.570Z,98879.09
2018-05-02T13:06:08.022Z,98880.86
2018-05-02T13:08:35.638Z,98875.80
2018-05-02T13:11:05.461Z,98870.63
2018-05-02T13:13:33.234Z,98867.09
2018-05-02T13:16:00.801Z,98869.45
2018-05-02T13:18:28.736Z,98874.11
2018-05-02T13:20:56.342Z,98870.31
2018-05-02T13:23:24.579Z,98872.17
2018-05-02T13:25:52.268Z,98869.74
2018-05-02T13:28:19.799Z,98871.64
2018-05-02T13:30:47.373Z,98865.92
2018-05-02T13:33:14.993Z,98864.16
2018-05-02T13:35:42.608Z,98866.70
2018-05-02T13:38:11.585Z,98858.61
2018-05-02T13:40:39.707Z,98850.43
2018-05-02T13:43:07.335Z,98847.62
2018-05-02T13:45:34.890Z,98839.78
2018-05-02T13:48:02.432Z,98837.65
2018-05-02T13:50:29.965Z,98831.08
2018-05-02T13:53:01.688Z,98834.47
2018-05-02T13:55:31.302Z,98828.73
2018-05-02T13:57:59.350Z,98828.20
2018-05-02T14:00:28.294Z,98834.73
2018-05-02T14:02:56.081Z,98833.31
2018-05-02T14:05:28.209Z,98836.29
2018-05-02T14:07:57.135Z,98826.94
2018-05-02T14:10:27.058Z,98818.41
2018-05-02T14:12:55.251Z,98825.63
2018-05-02T14:15:23.057Z,98833.98
2018-05-02T14:17:51.091Z,98826.69
2018-05-02T14:20:19.118Z,98829.78
2018-05-02T14:22:47.129Z,98819.64
2018-05-02T14:25:15.752Z,98820.03
2018-05-02T14:27:47.002Z,98826.86
2018-05-02T14:30:18.019Z,98822.84
2018-05-02T14:32:45.917Z,98822.94
2018-05-02T14:35:14.161Z,98826.91
2018-05-02T14:37:42.537Z,98806.31
2018-05-02T14:40:11.661Z,98821.59
2018-05-02T14:42:39.242Z,98825.71
2018-05-02T14:45:07.067Z,98833.16
2018-05-02T14:47:36.238Z,98828.56
2018-05-02T14:50:04.424Z,98823.79
2018-05-02T14:52:31.977Z,98820.36
2018-05-02T14:55:02.107Z,98821.73
2018-05-02T14:57:29.958Z,98817.65
2018-05-02T14:59:57.551Z,98810.17
2018-05-02T15:02:25.690Z,98811.50
2018-05-02T15:04:53.235Z,98814.93
2018-05-02T15:07:23.388Z,98815.86
2018-05-02T15:09:51.445Z,98814.19
2018-05-02T15:12:20.172Z,98815.95
2018-05-02T15:14:48.102Z,98811.94
2018-05-02T15:17:16.792Z,98817.13
2018-05-02T15:19:44.427Z,98811.81
2018-05-02T15:22:12.328Z,98812.80
2018-05-02T15:24:40.271Z,98813.66
2018-05-02T15:27:08.162Z,98806.70
2018-05-02T15:29:35.881Z,98807.61
2018-05-02T15:32:04.909Z,98812.30
2018-05-02T15:34:32.589Z,98808.62
2018-05-02T15:37:04.843Z,98812.44
2018-05-02T15:39:32.642Z,98811.71
2018-05-02T15:42:01.977Z,98807.78
2018-05-02T15:44:30.083Z,98813.47
2018-05-02T15:46:59.174Z,98820.16
2018-05-02T15:49:28.501Z,98813.61
2018-05-02T15:51:57.033Z,98818.19
2018-05-02T15:54:26.659Z,98821.09
2018-05-02T15:56:54.417Z,98813.42
2018-05-02T15:59:22.053Z,98812.10
2018-05-02T16:01:50.644Z,98805.37
2018-05-02T16:04:18.741Z,98804.81
2018-05-02T16:06:46.291Z,98811.44
2018-05-02T16:09:14.570Z,98804.06
2018-05-02T16:11:43.876Z,98813.03
2018-05-02T16:14:12.070Z,98808.11
2018-05-02T16:16:39.621Z,98809.70
2018-05-02T16:19:07.703Z,98808.75
2018-05-02T16:21:35.330Z,98811.44
2018-05-02T16:24:03.403Z,98809.54
2018-05-02T16:26:31.285Z,98812.33
2018-05-02T16:29:01.586Z,98809.30
2018-05-02T16:31:29.537Z,98811.47
2018-05-02T16:33:58.974Z,98808.53
2018-05-02T16:36:30.138Z,98803.27
2018-05-02T16:38:58.048Z,98804.31
2018-05-02T16:41:25.709Z,98809.30
2018-05-02T16:43:54.646Z,98806.92
2018-05-02T16:46:25.079Z,98801.95
2018-05-02T16:48:52.654Z,98808.86
2018-05-02T16:51:20.283Z,98803.64
2018-05-02T16:53:48.430Z,98796.68
2018-05-02T16:56:16.664Z,98795.21
2018-05-02T16:58:44.489Z,98789.32
2018-05-02T17:01:12.063Z,98813.56
2018-05-02T17:03:39.697Z,98809.07
2018-05-02T17:06:10.297Z,98807.06
2018-05-02T17:08:40.336Z,98808.60
2018-05-02T17:11:08.165Z,98806.92
2018-05-02T17:13:38.307Z,98818.91
2018-05-02T17:16:08.622Z,98813.83
2018-05-02T17:18:38.629Z,98803.80
2018-05-02T17:21:09.562Z,98812.84
2018-05-02T17:23:39.142Z,98818.48
2018-05-02T17:26:07.123Z,98818.76
2018-05-02T17:28:36.919Z,98816.61
2018-05-02T17:31:06.301Z,98811.59
2018-05-02T17:33:34.821Z,98815.27
2018-05-02T17:36:05.820Z,98812.34
2018-05-02T17:38:36.879Z,98816.70
2018-05-02T17:41:05.226Z,98814.70
2018-05-02T17:43:35.229Z,98810.16
2018-05-02T17:46:05.757Z,98812.48
2018-05-02T17:48:33.785Z,98813.48
2018-05-02T17:51:04.686Z,98820.84
2018-05-02T17:53:36.274Z,98818.36
2018-05-02T17:56:04.892Z,98814.92
2018-05-02T17:58:37.760Z,98818.92
2018-05-02T18:01:06.118Z,98815.94
2018-05-02T18:03:33.893Z,98827.23
2018-05-02T18:06:05.712Z,98822.82
2018-05-02T18:08:34.327Z,98827.08
2018-05-02T18:11:03.857Z,98829.38
2018-05-02T18:13:34.761Z,98824.66
2018-05-02T18:16:04.182Z,98817.73
2018-05-02T18:18:32.535Z,98826.52
2018-05-02T18:21:01.039Z,98831.14
2018-05-02T18:23:30.161Z,98843.42
2018-05-02T18:25:58.892Z,98839.68
2018-05-02T18:28:26.422Z,98841.38
2018-05-02T18:30:54.097Z,98841.84
2018-05-02T18:33:24.321Z,98847.68
2018-05-02T18:35:52.031Z,98858.44
2018-05-02T18:38:20.775Z,98862.66
2018-05-02T18:40:48.683Z,98863.61
2018-05-02T18:43:16.858Z,98870.37
2018-05-02T18:45:44.836Z,98875.47
2018-05-02T18:48:12.840Z,98872.55
2018-05-02T18:50:40.486Z,98872.00
2018-05-02T18:53:08.426Z,98883.80
2018-05-02T18:55:36.048Z,98881.31
2018-05-02T18:58:03.800Z,98885.80
2018-05-02T19:00:31.404Z,98888.55
2018-05-02T19:02:58.964Z,98888.85
2018-05-02T19:05:26.920Z,98891.50
2018-05-02T19:07:54.709Z,98896.96
2018-05-02T19:10:22.311Z,98899.66
2018-05-02T19:12:49.837Z,98901.88
2018-05-02T19:15:17.419Z,98905.39
2018-05-02T19:17:50.619Z,98907.91
2018-05-02T19:20:23.770Z,98913.11
2018-05-02T19:22:51.293Z,98909.73
2018-05-02T19:25:24.397Z,98911.66
2018-05-02T19:27:51.925Z,98918.42
2018-05-02T19:30:19.529Z,98916.48
2018-05-02T19:32:53.035Z,98918.52
2018-05-02T19:35:20.686Z,98914.91
2018-05-02T19:37:48.202Z,98915.02
2018-05-02T19:40:21.362Z,98921.75
2018-05-02T19:45:50.962Z,98924.64
2018-05-02T19:48:18.543Z,98924.77
2018-05-02T19:50:51.713Z,98928.12
2018-05-02T19:53:19.273Z,98933.25
2018-05-02T19:55:47.426Z,98934.77
2018-05-02T19:58:15.007Z,98935.03
2018-05-02T20:00:48.235Z,98945.41
2018-05-02T20:03:15.753Z,98947.22
2018-05-02T20:05:43.835Z,98941.70
2018-05-02T20:08:17.025Z,98942.13
2018-05-02T20:13:53.589Z,98945.53
2018-05-02T20:16:21.470Z,98942.11
2018-05-02T20:18:48.998Z,98935.73
2018-05-02T20:21:17.492Z,98919.96
2018-05-02T20:23:45.022Z,98942.36
2018-05-02T20:26:12.577Z,98944.17
2018-05-02T20:28:40.185Z,98949.64
2018-05-02T20:31:07.751Z,98945.19
2018-05-02T20:33:35.291Z,98937.08
2018-05-02T20:36:07.441Z,98935.66
2018-05-02T20:38:36.456Z,98944.68
2018-05-02T20:41:04.041Z,98938.12
2018-05-02T20:43:34.153Z,98941.52
2018-05-02T20:46:01.919Z,98936.81
2018-05-02T20:48:29.449Z,98932.14
2018-05-02T20:50:57.000Z,98938.62
2018-05-02T20:53:24.603Z,98938.42
2018-05-02T20:55:52.131Z,98934.78
2018-05-02T20:58:19.715Z,98935.86
2018-05-02T21:00:47.633Z,98932.02
2018-05-02T21:03:15.215Z,98935.86
2018-05-02T21:05:42.741Z,98929.74
2018-05-02T21:08:10.289Z,98927.58
2018-05-02T21:10:37.815Z,98920.52
2018-05-02T21:13:05.374Z,98920.14
2018-05-02T21:15:32.897Z,98920.63
2018-05-02T21:18:02.625Z,98923.12
2018-05-02T21:20:30.148Z,98923.53
2018-05-02T21:22:57.769Z,98928.58
2018-05-02T21:25:25.286Z,98930.95
2018-05-02T21:27:52.834Z,98927.91
2018-05-02T21:30:20.386Z,98924.91
2018-05-02T21:32:48.090Z,98922.70
2018-05-02T21:35:15.614Z,98923.22
2018-05-02T21:37:43.195Z,98923.97
2018-05-02T21:40:10.722Z,98929.01
2018-05-02T21:42:38.353Z,98939.50
2018-05-02T21:45:05.925Z,98937.88
2018-05-02T21:47:33.480Z,98938.99
2018-05-02T21:50:01.006Z,98946.33
2018-05-02T21:52:29.588Z,98945.89
2018-05-02T21:54:57.186Z,98956.81
2018-05-02T21:57:24.763Z,98949.63
2018-05-02T21:59:52.314Z,98948.99
2018-05-02T22:02:19.941Z,98947.85
2018-05-02T22:04:48.193Z,98940.44
2018-05-02T22:07:16.091Z,98959.48
2018-05-02T22:09:43.769Z,98955.97
2018-05-02T22:12:11.478Z,98953.72
2018-05-02T22:14:39.105Z,98957.50
2018-05-02T22:17:06.761Z,98958.59
2018-05-02T22:19:34.805Z,98958.86
2018-05-02T22:22:02.584Z,98957.69
2018-05-02T22:24:30.238Z,98957.84
2018-05-02T22:26:58.038Z,98965.31
2018-05-02T22:29:25.618Z,98957.38
2018-05-02T22:31:53.242Z,98958.55
2018-05-02T22:34:20.889Z,98964.45
2018-05-02T22:36:48.548Z,98962.59
2018-05-02T22:39:17.248Z,98959.20
2018-05-02T22:41:44.903Z,98957.42
2018-05-02T22:44:12.660Z,98965.31
2018-05-02T22:46:40.234Z,98969.43
2018-05-02T22:49:07.885Z,98970.00
2018-05-02T22:51:35.438Z,98975.37
2018-05-02T22:54:03.313Z,98981.47
2018-05-02T22:56:30.912Z,98981.83
2018-05-02T22:58:58.541Z,98986.78
2018-05-02T23:01:26.240Z,98986.53
2018-05-02T23:03:53.936Z,98985.58
2018-05-02T23:06:21.597Z,98984.48
2018-05-02T23:08:49.271Z,98977.23
2018-05-02T23:11:17.249Z,98984.36
2018-05-02T23:13:44.912Z,98986.16
2018-05-02T23:16:12.586Z,98978.92
2018-05-02T23:18:40.109Z,98987.46
2018-05-02T23:21:07.661Z,98975.34
2018-05-02T23:23:35.210Z,98980.27
2018-05-02T23:26:02.810Z,98974.36
2018-05-02T23:28:30.370Z,98966.05
2018-05-02T23:30:57.914Z,98964.22
2018-05-02T23:33:25.422Z,98968.73
2018-05-02T23:35:52.974Z,98965.84
2018-05-02T23:38:20.613Z,98969.48
2018-05-02T23:40:48.554Z,98975.27
2018-05-02T23:43:16.081Z,98968.40
2018-05-02T23:45:43.639Z,98967.17
2018-05-02T23:48:11.159Z,98960.44
2018-05-02T23:50:38.718Z,98961.44
2018-05-02T23:53:06.266Z,98964.11
2018-05-02T23:55:33.819Z,98958.65
2018-05-02T23:58:01.394Z,98964.61
